sensor_id;sensor_type;location;lat;lon;timestamp;P1;durP1;ratioP1;P2;durP2;ratioP2
59310;SDS011;45078;51.654;21.250;2023-02-28T00:01:21;12.23;;;3.58;;
59310;SDS011;45078;51.654;21.250;2023-02-28T00:03:47;5.05;;;3.05;;
59310;SDS011;45078;51.654;21.250;2023-02-28T00:06:13;3.72;;;2.85;;
59310;SDS011;45078;51.654;21.250;2023-02-28T00:08:39;2.60;;;2.25;;
59310;SDS011;45078;51.654;21.250;2023-02-28T00:11:06;3.05;;;2.60;;
59310;SDS011;45078;51.654;21.250;2023-02-28T00:13:34;5.25;;;3.38;;
59310;SDS011;45078;51.654;21.250;2023-02-28T00:16:03;6.78;;;4.35;;
59310;SDS011;45078;51.654;21.250;2023-02-28T00:18:31;5.05;;;3.13;;
59310;SDS011;45078;51.654;21.250;2023-02-28T00:20:57;6.03;;;3.67;;
59310;SDS011;45078;51.654;21.250;2023-02-28T00:23:24;3.55;;;3.00;;
59310;SDS011;45078;51.654;21.250;2023-02-28T00:25:50;5.28;;;3.30;;
59310;SDS011;45078;51.654;21.250;2023-02-28T00:28:16;9.10;;;3.85;;
59310;SDS011;45078;51.654;21.250;2023-02-28T00:30:42;4.20;;;3.38;;
59310;SDS011;45078;51.654;21.250;2023-02-28T00:33:08;4.07;;;3.33;;
59310;SDS011;45078;51.654;21.250;2023-02-28T00:35:33;6.85;;;3.15;;
59310;SDS011;45078;51.654;21.250;2023-02-28T00:38:00;6.75;;;3.70;;
59310;SDS011;45078;51.654;21.250;2023-02-28T00:40:25;4.07;;;3.67;;
59310;SDS011;45078;51.654;21.250;2023-02-28T00:42:51;9.43;;;4.03;;
59310;SDS011;45078;51.654;21.250;2023-02-28T00:45:17;13.50;;;3.80;;
59310;SDS011;45078;51.654;21.250;2023-02-28T00:47:43;4.93;;;3.10;;
59310;SDS011;45078;51.654;21.250;2023-02-28T00:50:09;5.30;;;3.72;;
59310;SDS011;45078;51.654;21.250;2023-02-28T00:52:35;5.80;;;2.95;;
59310;SDS011;45078;51.654;21.250;2023-02-28T00:55:01;4.50;;;3.05;;
59310;SDS011;45078;51.654;21.250;2023-02-28T00:57:27;5.28;;;3.20;;
59310;SDS011;45078;51.654;21.250;2023-02-28T00:59:52;7.53;;;4.15;;
59310;SDS011;45078;51.654;21.250;2023-02-28T01:02:20;7.15;;;2.78;;
59310;SDS011;45078;51.654;21.250;2023-02-28T01:04:46;6.75;;;4.13;;
59310;SDS011;45078;51.654;21.250;2023-02-28T01:07:13;4.50;;;2.10;;
59310;SDS011;45078;51.654;21.250;2023-02-28T01:09:40;4.22;;;3.00;;
59310;SDS011;45078;51.654;21.250;2023-02-28T01:12:06;4.55;;;2.85;;
59310;SDS011;45078;51.654;21.250;2023-02-28T01:14:33;9.13;;;4.20;;
59310;SDS011;45078;51.654;21.250;2023-02-28T01:16:59;5.93;;;3.05;;
59310;SDS011;45078;51.654;21.250;2023-02-28T01:19:26;11.25;;;4.70;;
59310;SDS011;45078;51.654;21.250;2023-02-28T01:21:51;6.60;;;4.03;;
59310;SDS011;45078;51.654;21.250;2023-02-28T01:24:17;4.82;;;2.88;;
59310;SDS011;45078;51.654;21.250;2023-02-28T01:26:43;3.97;;;3.63;;
59310;SDS011;45078;51.654;21.250;2023-02-28T01:29:09;6.13;;;3.30;;
59310;SDS011;45078;51.654;21.250;2023-02-28T01:31:34;3.75;;;2.90;;
59310;SDS011;45078;51.654;21.250;2023-02-28T01:34:00;4.90;;;3.58;;
59310;SDS011;45078;51.654;21.250;2023-02-28T01:36:26;5.55;;;3.45;;
59310;SDS011;45078;51.654;21.250;2023-02-28T01:38:52;8.63;;;3.97;;
59310;SDS011;45078;51.654;21.250;2023-02-28T01:41:23;5.00;;;3.17;;
59310;SDS011;45078;51.654;21.250;2023-02-28T01:43:58;4.32;;;2.88;;
59310;SDS011;45078;51.654;21.250;2023-02-28T01:46:28;8.10;;;5.25;;
59310;SDS011;45078;51.654;21.250;2023-02-28T01:49:00;6.80;;;3.28;;
59310;SDS011;45078;51.654;21.250;2023-02-28T01:51:36;6.82;;;4.75;;
59310;SDS011;45078;51.654;21.250;2023-02-28T01:54:11;3.42;;;2.15;;
59310;SDS011;45078;51.654;21.250;2023-02-28T01:56:45;9.73;;;4.15;;
59310;SDS011;45078;51.654;21.250;2023-02-28T01:59:18;8.32;;;3.70;;
59310;SDS011;45078;51.654;21.250;2023-02-28T02:01:49;8.05;;;3.72;;
59310;SDS011;45078;51.654;21.250;2023-02-28T02:04:15;7.15;;;4.00;;
59310;SDS011;45078;51.654;21.250;2023-02-28T02:06:42;11.38;;;3.90;;
59310;SDS011;45078;51.654;21.250;2023-02-28T02:09:11;3.90;;;3.03;;
59310;SDS011;45078;51.654;21.250;2023-02-28T02:11:37;5.90;;;3.80;;
59310;SDS011;45078;51.654;21.250;2023-02-28T02:40:25;4.55;;;3.88;;
59310;SDS011;45078;51.654;21.250;2023-02-28T02:43:07;3.38;;;3.08;;
59310;SDS011;45078;51.654;21.250;2023-02-28T02:45:52;2.72;;;2.03;;
59310;SDS011;45078;51.654;21.250;2023-02-28T02:48:30;2.42;;;2.22;;
59310;SDS011;45078;51.654;21.250;2023-02-28T02:51:00;11.27;;;4.80;;
59310;SDS011;45078;51.654;21.250;2023-02-28T02:53:36;5.95;;;3.55;;
59310;SDS011;45078;51.654;21.250;2023-02-28T02:56:07;4.38;;;3.47;;
59310;SDS011;45078;51.654;21.250;2023-02-28T02:58:36;8.10;;;3.53;;
59310;SDS011;45078;51.654;21.250;2023-02-28T03:01:07;4.43;;;2.97;;
59310;SDS011;45078;51.654;21.250;2023-02-28T03:03:35;4.85;;;3.35;;
59310;SDS011;45078;51.654;21.250;2023-02-28T03:06:01;4.43;;;3.42;;
59310;SDS011;45078;51.654;21.250;2023-02-28T03:08:29;4.38;;;3.08;;
59310;SDS011;45078;51.654;21.250;2023-02-28T03:10:59;6.65;;;4.07;;
59310;SDS011;45078;51.654;21.250;2023-02-28T03:21:36;8.98;;;4.22;;
59310;SDS011;45078;51.654;21.250;2023-02-28T03:26:55;3.67;;;3.08;;
59310;SDS011;45078;51.654;21.250;2023-02-28T03:29:34;5.57;;;3.90;;
59310;SDS011;45078;51.654;21.250;2023-02-28T03:32:05;5.32;;;2.92;;
59310;SDS011;45078;51.654;21.250;2023-02-28T03:34:41;3.88;;;3.17;;
59310;SDS011;45078;51.654;21.250;2023-02-28T03:37:18;9.63;;;5.15;;
59310;SDS011;45078;51.654;21.250;2023-02-28T03:39:48;5.45;;;3.88;;
59310;SDS011;45078;51.654;21.250;2023-02-28T03:42:22;5.90;;;3.20;;
59310;SDS011;45078;51.654;21.250;2023-02-28T03:44:53;9.57;;;5.32;;
59310;SDS011;45078;51.654;21.250;2023-02-28T03:47:27;3.97;;;2.92;;
59310;SDS011;45078;51.654;21.250;2023-02-28T03:53:08;6.25;;;4.15;;
59310;SDS011;45078;51.654;21.250;2023-02-28T03:55:55;5.65;;;3.75;;
59310;SDS011;45078;51.654;21.250;2023-02-28T04:01:08;5.30;;;4.28;;
59310;SDS011;45078;51.654;21.250;2023-02-28T04:03:38;9.90;;;3.65;;
59310;SDS011;45078;51.654;21.250;2023-02-28T04:06:05;5.93;;;4.57;;
59310;SDS011;45078;51.654;21.250;2023-02-28T04:08:37;8.63;;;4.18;;
59310;SDS011;45078;51.654;21.250;2023-02-28T04:11:08;7.00;;;3.75;;
59310;SDS011;45078;51.654;21.250;2023-02-28T04:13:45;12.15;;;4.35;;
59310;SDS011;45078;51.654;21.250;2023-02-28T04:16:10;5.45;;;4.03;;
59310;SDS011;45078;51.654;21.250;2023-02-28T04:18:37;4.18;;;3.70;;
59310;SDS011;45078;51.654;21.250;2023-02-28T04:21:04;10.10;;;5.10;;
59310;SDS011;45078;51.654;21.250;2023-02-28T04:23:30;7.93;;;4.18;;
59310;SDS011;45078;51.654;21.250;2023-02-28T04:25:56;8.27;;;4.53;;
59310;SDS011;45078;51.654;21.250;2023-02-28T04:28:22;7.25;;;3.50;;
59310;SDS011;45078;51.654;21.250;2023-02-28T04:30:53;3.35;;;2.97;;
59310;SDS011;45078;51.654;21.250;2023-02-28T04:33:24;18.30;;;4.95;;
59310;SDS011;45078;51.654;21.250;2023-02-28T04:38:35;8.32;;;3.63;;
59310;SDS011;45078;51.654;21.250;2023-02-28T04:41:03;4.97;;;3.10;;
59310;SDS011;45078;51.654;21.250;2023-02-28T04:43:29;9.27;;;4.65;;
59310;SDS011;45078;51.654;21.250;2023-02-28T04:45:56;6.35;;;4.00;;
59310;SDS011;45078;51.654;21.250;2023-02-28T04:48:24;9.18;;;5.28;;
59310;SDS011;45078;51.654;21.250;2023-02-28T04:50:51;7.07;;;4.45;;
59310;SDS011;45078;51.654;21.250;2023-02-28T04:53:17;5.88;;;4.35;;
59310;SDS011;45078;51.654;21.250;2023-02-28T04:55:43;4.95;;;4.13;;
59310;SDS011;45078;51.654;21.250;2023-02-28T04:58:10;9.20;;;4.15;;
59310;SDS011;45078;51.654;21.250;2023-02-28T05:00:36;10.25;;;5.47;;
59310;SDS011;45078;51.654;21.250;2023-02-28T05:03:01;9.40;;;5.00;;
59310;SDS011;45078;51.654;21.250;2023-02-28T05:05:27;8.93;;;3.88;;
59310;SDS011;45078;51.654;21.250;2023-02-28T05:07:53;11.23;;;5.18;;
59310;SDS011;45078;51.654;21.250;2023-02-28T05:10:21;7.70;;;4.82;;
59310;SDS011;45078;51.654;21.250;2023-02-28T05:12:47;5.93;;;4.50;;
59310;SDS011;45078;51.654;21.250;2023-02-28T05:15:13;15.23;;;5.68;;
59310;SDS011;45078;51.654;21.250;2023-02-28T05:17:40;9.18;;;4.78;;
59310;SDS011;45078;51.654;21.250;2023-02-28T05:20:07;9.18;;;5.57;;
59310;SDS011;45078;51.654;21.250;2023-02-28T05:22:39;11.10;;;4.15;;
59310;SDS011;45078;51.654;21.250;2023-02-28T05:25:06;14.02;;;5.95;;
59310;SDS011;45078;51.654;21.250;2023-02-28T05:27:34;10.00;;;4.90;;
59310;SDS011;45078;51.654;21.250;2023-02-28T05:30:00;12.82;;;5.60;;
59310;SDS011;45078;51.654;21.250;2023-02-28T05:32:28;7.65;;;4.55;;
59310;SDS011;45078;51.654;21.250;2023-02-28T05:34:54;6.57;;;3.58;;
59310;SDS011;45078;51.654;21.250;2023-02-28T05:37:20;6.88;;;5.13;;
59310;SDS011;45078;51.654;21.250;2023-02-28T05:39:46;6.85;;;4.63;;
59310;SDS011;45078;51.654;21.250;2023-02-28T05:42:11;4.32;;;3.30;;
59310;SDS011;45078;51.654;21.250;2023-02-28T05:44:37;10.68;;;4.05;;
59310;SDS011;45078;51.654;21.250;2023-02-28T05:47:03;7.35;;;4.43;;
59310;SDS011;45078;51.654;21.250;2023-02-28T05:49:29;11.68;;;4.70;;
59310;SDS011;45078;51.654;21.250;2023-02-28T05:51:54;11.32;;;5.30;;
59310;SDS011;45078;51.654;21.250;2023-02-28T05:54:20;6.72;;;3.63;;
59310;SDS011;45078;51.654;21.250;2023-02-28T05:56:46;2.95;;;2.70;;
59310;SDS011;45078;51.654;21.250;2023-02-28T05:59:12;11.23;;;4.07;;
59310;SDS011;45078;51.654;21.250;2023-02-28T06:01:39;8.05;;;4.45;;
59310;SDS011;45078;51.654;21.250;2023-02-28T06:04:07;6.20;;;4.03;;
59310;SDS011;45078;51.654;21.250;2023-02-28T06:06:34;5.68;;;4.20;;
59310;SDS011;45078;51.654;21.250;2023-02-28T06:09:02;6.30;;;4.75;;
59310;SDS011;45078;51.654;21.250;2023-02-28T06:11:31;6.18;;;3.60;;
59310;SDS011;45078;51.654;21.250;2023-02-28T06:13:58;10.00;;;4.95;;
59310;SDS011;45078;51.654;21.250;2023-02-28T06:16:26;8.90;;;3.80;;
59310;SDS011;45078;51.654;21.250;2023-02-28T06:18:52;8.38;;;5.00;;
59310;SDS011;45078;51.654;21.250;2023-02-28T06:21:20;12.75;;;5.95;;
59310;SDS011;45078;51.654;21.250;2023-02-28T06:23:47;8.30;;;4.68;;
59310;SDS011;45078;51.654;21.250;2023-02-28T06:26:12;7.40;;;6.40;;
59310;SDS011;45078;51.654;21.250;2023-02-28T06:28:38;7.57;;;4.65;;
59310;SDS011;45078;51.654;21.250;2023-02-28T06:31:08;9.70;;;4.75;;
59310;SDS011;45078;51.654;21.250;2023-02-28T06:33:35;11.52;;;4.38;;
59310;SDS011;45078;51.654;21.250;2023-02-28T06:36:03;7.38;;;5.28;;
59310;SDS011;45078;51.654;21.250;2023-02-28T06:38:30;9.00;;;4.85;;
59310;SDS011;45078;51.654;21.250;2023-02-28T06:40:56;7.82;;;4.97;;
59310;SDS011;45078;51.654;21.250;2023-02-28T06:43:23;14.00;;;5.88;;
59310;SDS011;45078;51.654;21.250;2023-02-28T06:45:49;14.82;;;5.53;;
59310;SDS011;45078;51.654;21.250;2023-02-28T06:48:15;13.93;;;5.68;;
59310;SDS011;45078;51.654;21.250;2023-02-28T06:50:41;13.90;;;5.50;;
59310;SDS011;45078;51.654;21.250;2023-02-28T06:53:07;10.30;;;6.00;;
59310;SDS011;45078;51.654;21.250;2023-02-28T06:55:33;14.05;;;5.55;;
59310;SDS011;45078;51.654;21.250;2023-02-28T06:57:58;12.57;;;5.88;;
59310;SDS011;45078;51.654;21.250;2023-02-28T07:00:24;13.95;;;6.15;;
59310;SDS011;45078;51.654;21.250;2023-02-28T07:02:50;13.07;;;6.72;;
59310;SDS011;45078;51.654;21.250;2023-02-28T07:05:16;12.38;;;6.57;;
59310;SDS011;45078;51.654;21.250;2023-02-28T07:07:42;12.95;;;6.57;;
59310;SDS011;45078;51.654;21.250;2023-02-28T07:10:10;14.18;;;7.32;;
59310;SDS011;45078;51.654;21.250;2023-02-28T07:12:37;17.90;;;8.45;;
59310;SDS011;45078;51.654;21.250;2023-02-28T07:15:04;13.63;;;7.13;;
59310;SDS011;45078;51.654;21.250;2023-02-28T07:17:31;15.68;;;7.07;;
59310;SDS011;45078;51.654;21.250;2023-02-28T07:19:56;14.40;;;6.60;;
59310;SDS011;45078;51.654;21.250;2023-02-28T07:22:22;13.32;;;6.28;;
59310;SDS011;45078;51.654;21.250;2023-02-28T07:24:48;14.75;;;5.95;;
59310;SDS011;45078;51.654;21.250;2023-02-28T07:27:14;14.48;;;6.30;;
59310;SDS011;45078;51.654;21.250;2023-02-28T07:29:52;11.63;;;5.88;;
59310;SDS011;45078;51.654;21.250;2023-02-28T07:32:18;16.38;;;6.68;;
59310;SDS011;45078;51.654;21.250;2023-02-28T07:34:44;13.73;;;5.35;;
59310;SDS011;45078;51.654;21.250;2023-02-28T07:37:10;11.93;;;6.07;;
59310;SDS011;45078;51.654;21.250;2023-02-28T07:39:36;14.77;;;6.35;;
59310;SDS011;45078;51.654;21.250;2023-02-28T07:42:05;10.60;;;5.63;;
59310;SDS011;45078;51.654;21.250;2023-02-28T07:44:31;12.18;;;5.63;;
59310;SDS011;45078;51.654;21.250;2023-02-28T07:46:57;12.65;;;5.95;;
59310;SDS011;45078;51.654;21.250;2023-02-28T07:49:23;12.25;;;5.28;;
59310;SDS011;45078;51.654;21.250;2023-02-28T07:51:49;12.02;;;6.20;;
59310;SDS011;45078;51.654;21.250;2023-02-28T07:54:14;9.27;;;5.10;;
59310;SDS011;45078;51.654;21.250;2023-02-28T07:56:40;13.27;;;7.75;;
59310;SDS011;45078;51.654;21.250;2023-02-28T07:59:06;10.60;;;5.93;;
59310;SDS011;45078;51.654;21.250;2023-02-28T08:01:32;12.35;;;6.15;;
59310;SDS011;45078;51.654;21.250;2023-02-28T08:03:57;13.70;;;5.22;;
59310;SDS011;45078;51.654;21.250;2023-02-28T08:06:24;10.00;;;5.65;;
59310;SDS011;45078;51.654;21.250;2023-02-28T08:08:51;15.95;;;5.32;;
59310;SDS011;45078;51.654;21.250;2023-02-28T08:11:18;8.07;;;4.60;;
59310;SDS011;45078;51.654;21.250;2023-02-28T08:13:44;11.45;;;5.50;;
59310;SDS011;45078;51.654;21.250;2023-02-28T08:16:11;10.65;;;5.50;;
59310;SDS011;45078;51.654;21.250;2023-02-28T08:18:40;9.68;;;5.53;;
59310;SDS011;45078;51.654;21.250;2023-02-28T08:21:09;14.48;;;5.55;;
59310;SDS011;45078;51.654;21.250;2023-02-28T08:23:35;9.93;;;4.78;;
59310;SDS011;45078;51.654;21.250;2023-02-28T08:26:02;7.43;;;4.53;;
59310;SDS011;45078;51.654;21.250;2023-02-28T08:28:28;12.00;;;4.35;;
59310;SDS011;45078;51.654;21.250;2023-02-28T08:30:54;10.25;;;4.88;;
59310;SDS011;45078;51.654;21.250;2023-02-28T08:33:20;11.23;;;5.65;;
59310;SDS011;45078;51.654;21.250;2023-02-28T08:35:47;11.02;;;4.95;;
59310;SDS011;45078;51.654;21.250;2023-02-28T08:38:13;8.98;;;4.65;;
59310;SDS011;45078;51.654;21.250;2023-02-28T08:40:39;10.75;;;5.47;;
59310;SDS011;45078;51.654;21.250;2023-02-28T08:43:05;11.07;;;5.68;;
59310;SDS011;45078;51.654;21.250;2023-02-28T08:45:32;10.85;;;5.30;;
59310;SDS011;45078;51.654;21.250;2023-02-28T08:47:58;8.98;;;4.63;;
59310;SDS011;45078;51.654;21.250;2023-02-28T08:50:23;10.85;;;6.28;;
59310;SDS011;45078;51.654;21.250;2023-02-28T08:52:49;16.67;;;5.40;;
59310;SDS011;45078;51.654;21.250;2023-02-28T08:55:15;16.27;;;5.85;;
59310;SDS011;45078;51.654;21.250;2023-02-28T08:57:41;10.65;;;5.20;;
59310;SDS011;45078;51.654;21.250;2023-02-28T09:00:07;15.55;;;6.85;;
59310;SDS011;45078;51.654;21.250;2023-02-28T09:02:33;14.50;;;6.53;;
59310;SDS011;45078;51.654;21.250;2023-02-28T09:04:58;14.98;;;6.45;;
59310;SDS011;45078;51.654;21.250;2023-02-28T09:07:24;12.40;;;6.32;;
59310;SDS011;45078;51.654;21.250;2023-02-28T09:09:50;11.38;;;6.28;;
59310;SDS011;45078;51.654;21.250;2023-02-28T09:12:25;11.45;;;6.13;;
59310;SDS011;45078;51.654;21.250;2023-02-28T09:14:52;10.82;;;4.50;;
59310;SDS011;45078;51.654;21.250;2023-02-28T09:17:18;9.93;;;4.88;;
59310;SDS011;45078;51.654;21.250;2023-02-28T09:19:46;9.07;;;4.28;;
59310;SDS011;45078;51.654;21.250;2023-02-28T09:22:14;9.57;;;4.22;;
59310;SDS011;45078;51.654;21.250;2023-02-28T09:24:39;9.23;;;4.72;;
59310;SDS011;45078;51.654;21.250;2023-02-28T09:27:05;7.63;;;4.65;;
59310;SDS011;45078;51.654;21.250;2023-02-28T09:29:32;14.88;;;5.93;;
59310;SDS011;45078;51.654;21.250;2023-02-28T09:31:59;10.50;;;5.47;;
59310;SDS011;45078;51.654;21.250;2023-02-28T09:34:26;12.63;;;6.32;;
59310;SDS011;45078;51.654;21.250;2023-02-28T09:36:52;14.90;;;5.85;;
59310;SDS011;45078;51.654;21.250;2023-02-28T09:39:19;12.35;;;6.25;;
59310;SDS011;45078;51.654;21.250;2023-02-28T09:41:47;11.43;;;5.45;;
59310;SDS011;45078;51.654;21.250;2023-02-28T09:44:22;13.02;;;5.90;;
59310;SDS011;45078;51.654;21.250;2023-02-28T09:49:34;11.05;;;5.20;;
59310;SDS011;45078;51.654;21.250;2023-02-28T09:52:17;10.43;;;4.72;;
59310;SDS011;45078;51.654;21.250;2023-02-28T09:54:54;10.32;;;4.88;;
59310;SDS011;45078;51.654;21.250;2023-02-28T09:57:35;9.48;;;4.93;;
59310;SDS011;45078;51.654;21.250;2023-02-28T10:00:13;8.13;;;4.72;;
59310;SDS011;45078;51.654;21.250;2023-02-28T10:05:20;9.40;;;5.53;;
59310;SDS011;45078;51.654;21.250;2023-02-28T10:08:05;11.32;;;5.50;;
59310;SDS011;45078;51.654;21.250;2023-02-28T10:10:51;10.27;;;5.30;;
59310;SDS011;45078;51.654;21.250;2023-02-28T10:16:03;10.75;;;5.65;;
59310;SDS011;45078;51.654;21.250;2023-02-28T10:22:17;8.35;;;5.10;;
59310;SDS011;45078;51.654;21.250;2023-02-28T10:26:51;12.40;;;5.88;;
59310;SDS011;45078;51.654;21.250;2023-02-28T10:29:22;11.90;;;5.35;;
59310;SDS011;45078;51.654;21.250;2023-02-28T10:31:47;11.95;;;6.55;;
59310;SDS011;45078;51.654;21.250;2023-02-28T10:34:13;11.52;;;6.10;;
59310;SDS011;45078;51.654;21.250;2023-02-28T10:36:39;10.38;;;6.10;;
59310;SDS011;45078;51.654;21.250;2023-02-28T10:41:59;9.57;;;5.70;;
59310;SDS011;45078;51.654;21.250;2023-02-28T10:44:25;10.52;;;5.63;;
59310;SDS011;45078;51.654;21.250;2023-02-28T10:46:50;19.05;;;6.32;;
59310;SDS011;45078;51.654;21.250;2023-02-28T10:49:19;11.63;;;6.07;;
59310;SDS011;45078;51.654;21.250;2023-02-28T10:51:49;11.77;;;6.38;;
59310;SDS011;45078;51.654;21.250;2023-02-28T10:54:34;13.27;;;6.63;;
59310;SDS011;45078;51.654;21.250;2023-02-28T10:57:16;11.27;;;6.03;;
59310;SDS011;45078;51.654;21.250;2023-02-28T10:59:50;9.68;;;6.05;;
59310;SDS011;45078;51.654;21.250;2023-02-28T11:02:34;10.77;;;5.95;;
59310;SDS011;45078;51.654;21.250;2023-02-28T11:05:21;11.15;;;6.07;;
59310;SDS011;45078;51.654;21.250;2023-02-28T11:07:51;10.73;;;5.38;;
59310;SDS011;45078;51.654;21.250;2023-02-28T11:10:19;10.57;;;6.07;;
59310;SDS011;45078;51.654;21.250;2023-02-28T11:12:47;10.70;;;6.07;;
59310;SDS011;45078;51.654;21.250;2023-02-28T11:17:43;9.73;;;5.10;;
59310;SDS011;45078;51.654;21.250;2023-02-28T11:20:10;11.93;;;6.18;;
59310;SDS011;45078;51.654;21.250;2023-02-28T11:22:48;14.52;;;5.82;;
59310;SDS011;45078;51.654;21.250;2023-02-28T11:25:22;10.77;;;5.88;;
59310;SDS011;45078;51.654;21.250;2023-02-28T11:27:52;12.40;;;5.88;;
59310;SDS011;45078;51.654;21.250;2023-02-28T11:36:02;13.32;;;6.15;;
59310;SDS011;45078;51.654;21.250;2023-02-28T11:38:34;6.63;;;4.47;;
59310;SDS011;45078;51.654;21.250;2023-02-28T11:46:44;10.02;;;5.43;;
59310;SDS011;45078;51.654;21.250;2023-02-28T12:07:08;9.70;;;5.28;;
59310;SDS011;45078;51.654;21.250;2023-02-28T12:29:01;13.65;;;5.70;;
59310;SDS011;45078;51.654;21.250;2023-02-28T12:31:38;10.10;;;5.20;;
59310;SDS011;45078;51.654;21.250;2023-02-28T12:34:11;11.30;;;5.60;;
59310;SDS011;45078;51.654;21.250;2023-02-28T12:36:41;6.80;;;4.22;;
59310;SDS011;45078;51.654;21.250;2023-02-28T12:39:14;9.68;;;4.97;;
59310;SDS011;45078;51.654;21.250;2023-02-28T12:41:51;10.40;;;5.85;;
59310;SDS011;45078;51.654;21.250;2023-02-28T12:47:21;8.60;;;4.78;;
59310;SDS011;45078;51.654;21.250;2023-02-28T12:55:27;11.57;;;5.35;;
59310;SDS011;45078;51.654;21.250;2023-02-28T13:09:55;15.27;;;6.28;;
59310;SDS011;45078;51.654;21.250;2023-02-28T13:12:22;12.55;;;6.03;;
59310;SDS011;45078;51.654;21.250;2023-02-28T13:14:49;13.93;;;5.70;;
59310;SDS011;45078;51.654;21.250;2023-02-28T13:17:18;12.23;;;5.93;;
59310;SDS011;45078;51.654;21.250;2023-02-28T13:22:19;14.73;;;5.88;;
59310;SDS011;45078;51.654;21.250;2023-02-28T13:27:52;11.00;;;6.05;;
59310;SDS011;45078;51.654;21.250;2023-02-28T13:33:36;11.45;;;5.55;;
59310;SDS011;45078;51.654;21.250;2023-02-28T13:38:51;9.40;;;5.50;;
59310;SDS011;45078;51.654;21.250;2023-02-28T13:46:25;9.27;;;5.35;;
59310;SDS011;45078;51.654;21.250;2023-02-28T13:48:52;10.27;;;5.80;;
59310;SDS011;45078;51.654;21.250;2023-02-28T13:54:50;10.57;;;6.28;;
59310;SDS011;45078;51.654;21.250;2023-02-28T13:59:56;9.48;;;6.13;;
59310;SDS011;45078;51.654;21.250;2023-02-28T14:05:40;12.23;;;6.25;;
59310;SDS011;45078;51.654;21.250;2023-02-28T14:08:20;9.85;;;6.30;;
59310;SDS011;45078;51.654;21.250;2023-02-28T14:10:51;10.93;;;6.43;;
59310;SDS011;45078;51.654;21.250;2023-02-28T14:16:09;9.48;;;5.90;;
59310;SDS011;45078;51.654;21.250;2023-02-28T14:18:37;9.73;;;6.40;;
59310;SDS011;45078;51.654;21.250;2023-02-28T14:21:26;10.68;;;6.22;;
59310;SDS011;45078;51.654;21.250;2023-02-28T14:26:35;7.55;;;5.38;;
59310;SDS011;45078;51.654;21.250;2023-02-28T14:32:05;8.43;;;5.70;;
59310;SDS011;45078;51.654;21.250;2023-02-28T14:37:54;11.23;;;6.10;;
59310;SDS011;45078;51.654;21.250;2023-02-28T14:40:38;8.85;;;5.85;;
59310;SDS011;45078;51.654;21.250;2023-02-28T14:43:05;9.35;;;6.55;;
59310;SDS011;45078;51.654;21.250;2023-02-28T14:45:44;9.10;;;6.00;;
59310;SDS011;45078;51.654;21.250;2023-02-28T14:48:16;10.25;;;6.38;;
59310;SDS011;45078;51.654;21.250;2023-02-28T14:50:48;10.30;;;6.10;;
59310;SDS011;45078;51.654;21.250;2023-02-28T14:53:17;8.95;;;5.85;;
59310;SDS011;45078;51.654;21.250;2023-02-28T14:55:46;11.55;;;6.70;;
59310;SDS011;45078;51.654;21.250;2023-02-28T15:00:54;10.90;;;6.18;;
59310;SDS011;45078;51.654;21.250;2023-02-28T15:06:14;10.23;;;6.47;;
59310;SDS011;45078;51.654;21.250;2023-02-28T15:08:43;10.88;;;6.45;;
59310;SDS011;45078;51.654;21.250;2023-02-28T15:11:16;13.25;;;6.88;;
59310;SDS011;45078;51.654;21.250;2023-02-28T15:13:50;16.40;;;9.13;;
59310;SDS011;45078;51.654;21.250;2023-02-28T15:16:20;14.75;;;8.73;;
59310;SDS011;45078;51.654;21.250;2023-02-28T15:18:51;11.88;;;7.68;;
59310;SDS011;45078;51.654;21.250;2023-02-28T15:21:21;13.10;;;6.90;;
59310;SDS011;45078;51.654;21.250;2023-02-28T15:23:51;14.18;;;7.22;;
59310;SDS011;45078;51.654;21.250;2023-02-28T15:26:22;11.35;;;6.70;;
59310;SDS011;45078;51.654;21.250;2023-02-28T15:28:53;12.55;;;6.25;;
59310;SDS011;45078;51.654;21.250;2023-02-28T15:31:28;13.07;;;6.57;;
59310;SDS011;45078;51.654;21.250;2023-02-28T15:33:58;11.70;;;6.60;;
59310;SDS011;45078;51.654;21.250;2023-02-28T15:36:30;11.63;;;6.15;;
59310;SDS011;45078;51.654;21.250;2023-02-28T15:38:58;9.63;;;5.63;;
59310;SDS011;45078;51.654;21.250;2023-02-28T15:41:29;12.52;;;7.35;;
59310;SDS011;45078;51.654;21.250;2023-02-28T15:46:53;15.77;;;7.93;;
59310;SDS011;45078;51.654;21.250;2023-02-28T15:49:24;12.23;;;7.38;;
59310;SDS011;45078;51.654;21.250;2023-02-28T15:51:51;13.70;;;7.55;;
59310;SDS011;45078;51.654;21.250;2023-02-28T15:54:20;11.30;;;5.50;;
59310;SDS011;45078;51.654;21.250;2023-02-28T15:57:15;10.88;;;6.15;;
59310;SDS011;45078;51.654;21.250;2023-02-28T15:59:49;12.43;;;6.25;;
59310;SDS011;45078;51.654;21.250;2023-02-28T16:02:22;10.43;;;5.43;;
59310;SDS011;45078;51.654;21.250;2023-02-28T16:07:35;11.85;;;5.20;;
59310;SDS011;45078;51.654;21.250;2023-02-28T16:10:03;11.93;;;5.35;;
59310;SDS011;45078;51.654;21.250;2023-02-28T16:12:31;10.15;;;4.63;;
59310;SDS011;45078;51.654;21.250;2023-02-28T16:14:59;11.55;;;5.15;;
59310;SDS011;45078;51.654;21.250;2023-02-28T16:17:51;9.30;;;4.80;;
59310;SDS011;45078;51.654;21.250;2023-02-28T16:20:19;10.40;;;4.25;;
59310;SDS011;45078;51.654;21.250;2023-02-28T16:22:45;8.68;;;4.40;;
59310;SDS011;45078;51.654;21.250;2023-02-28T16:25:15;8.70;;;4.28;;
59310;SDS011;45078;51.654;21.250;2023-02-28T16:27:43;11.27;;;3.80;;
59310;SDS011;45078;51.654;21.250;2023-02-28T16:30:21;9.88;;;4.35;;
59310;SDS011;45078;51.654;21.250;2023-02-28T16:32:49;8.70;;;4.82;;
59310;SDS011;45078;51.654;21.250;2023-02-28T16:35:15;7.38;;;4.28;;
59310;SDS011;45078;51.654;21.250;2023-02-28T16:37:42;8.45;;;4.97;;
59310;SDS011;45078;51.654;21.250;2023-02-28T16:40:13;9.60;;;4.72;;
59310;SDS011;45078;51.654;21.250;2023-02-28T16:42:43;11.82;;;5.40;;
59310;SDS011;45078;51.654;21.250;2023-02-28T16:45:14;9.60;;;4.88;;
59310;SDS011;45078;51.654;21.250;2023-02-28T16:47:46;8.30;;;4.70;;
59310;SDS011;45078;51.654;21.250;2023-02-28T16:50:13;7.18;;;4.40;;
59310;SDS011;45078;51.654;21.250;2023-02-28T16:52:46;8.07;;;4.63;;
59310;SDS011;45078;51.654;21.250;2023-02-28T16:55:13;9.13;;;4.03;;
59310;SDS011;45078;51.654;21.250;2023-02-28T16:57:39;8.23;;;4.65;;
59310;SDS011;45078;51.654;21.250;2023-02-28T17:00:06;8.07;;;4.22;;
59310;SDS011;45078;51.654;21.250;2023-02-28T17:02:35;9.23;;;4.30;;
59310;SDS011;45078;51.654;21.250;2023-02-28T17:05:01;11.77;;;5.18;;
59310;SDS011;45078;51.654;21.250;2023-02-28T17:07:27;6.20;;;3.97;;
59310;SDS011;45078;51.654;21.250;2023-02-28T17:09:53;7.20;;;4.45;;
59310;SDS011;45078;51.654;21.250;2023-02-28T17:12:19;12.00;;;4.25;;
59310;SDS011;45078;51.654;21.250;2023-02-28T17:14:45;8.05;;;4.22;;
59310;SDS011;45078;51.654;21.250;2023-02-28T17:17:18;6.95;;;4.45;;
59310;SDS011;45078;51.654;21.250;2023-02-28T17:19:46;10.55;;;4.93;;
59310;SDS011;45078;51.654;21.250;2023-02-28T17:22:13;9.48;;;4.65;;
59310;SDS011;45078;51.654;21.250;2023-02-28T17:24:39;7.25;;;4.07;;
59310;SDS011;45078;51.654;21.250;2023-02-28T17:27:04;5.82;;;3.47;;
59310;SDS011;45078;51.654;21.250;2023-02-28T17:29:32;5.90;;;3.28;;
59310;SDS011;45078;51.654;21.250;2023-02-28T17:31:58;9.82;;;5.03;;
59310;SDS011;45078;51.654;21.250;2023-02-28T17:34:24;8.20;;;5.05;;
59310;SDS011;45078;51.654;21.250;2023-02-28T17:36:50;7.55;;;4.32;;
59310;SDS011;45078;51.654;21.250;2023-02-28T17:39:17;9.27;;;4.95;;
59310;SDS011;45078;51.654;21.250;2023-02-28T17:41:49;8.10;;;4.72;;